Time;durP1;ratioP1;P1;durP2;ratioP2;P2;SDS_P1;SDS_P2;PMS_P1;PMS_P2;Temp;Humidity;BMP_temperature;BMP_pressure;BME280_temperature;BME280_humidity;BME280_pressure;Samples;Min_cycle;Max_cycle;Signal;HPM_P1;HPM_P2
2022/10/03 00:02:59;;;;;;;5.88;2.10;;;;;;;;;;5050165;28;20032;-72
2022/10/03 00:05:30;;;;;;;3.65;1.88;;;;;;;;;;5049891;28;20509;-72
2022/10/03 00:08:32;;;;;;;5.53;2.17;;;;;;;;;;5050111;28;20029;-72
2022/10/03 00:11:25;;;;;;;4.22;2.05;;;;;;;;;;5050206;28;20064;-72
2022/10/03 00:14:02;;;;;;;4.03;1.92;;;;;;;;;;5050101;28;20071;-75
2022/10/03 00:16:57;;;;;;;3.72;2.10;;;;;;;;;;5049646;28;20090;-72
2022/10/03 00:19:25;;;;;;;4.07;1.90;;;;;;;;;;5049940;28;20397;-73
2022/10/03 00:21:59;;;;;;;3.95;1.90;;;;;;;;;;5049800;28;20064;-76
2022/10/03 00:24:51;;;;;;;3.65;2.10;;;;;;;;;;5049883;28;20193;-74
2022/10/03 00:27:28;;;;;;;3.92;2.00;;;;;;;;;;5044908;28;20463;-74
2022/10/03 00:30:03;;;;;;;4.43;2.10;;;;;;;;;;5032377;28;20032;-73
2022/10/03 00:32:50;;;;;;;4.50;2.10;;;;;;;;;;5049755;28;20029;-73
2022/10/03 00:35:43;;;;;;;4.05;1.90;;;;;;;;;;5032033;28;20024;-76
2022/10/03 00:38:33;;;;;;;4.60;2.10;;;;;;;;;;5049644;28;20583;-73
2022/10/03 00:41:11;;;;;;;4.30;1.97;;;;;;;;;;5031713;28;20052;-75
2022/10/03 00:44:09;;;;;;;4.25;2.10;;;;;;;;;;5031684;28;20279;-75
2022/10/03 00:47:02;;;;;;;4.70;1.70;;;;;;;;;;5049559;28;20511;-74
2022/10/03 00:49:49;;;;;;;2.75;1.80;;;;;;;;;;5049977;28;20552;-74
2022/10/03 00:52:27;;;;;;;6.72;2.17;;;;;;;;;;5031538;28;20025;-75
2022/10/03 00:55:10;;;;;;;4.03;1.90;;;;;;;;;;5049463;28;20400;-77
2022/10/03 00:57:53;;;;;;;3.80;1.70;;;;;;;;;;5031648;28;20094;-77
2022/10/03 01:00:25;;;;;;;4.20;1.90;;;;;;;;;;5050862;28;20017;-76
2022/10/03 01:02:51;;;;;;;3.85;1.83;;;;;;;;;;5053556;28;20025;-73
2022/10/03 01:06:01;;;;;;;3.70;1.60;;;;;;;;;;5053450;28;20028;-73
2022/10/03 01:08:37;;;;;;;6.00;2.20;;;;;;;;;;4952749;29;20578;-75
2022/10/03 01:11:02;;;;;;;4.60;2.05;;;;;;;;;;5046040;28;20672;-75
2022/10/03 01:13:55;;;;;;;4.40;1.80;;;;;;;;;;5053040;28;20162;-74
2022/10/03 01:17:10;;;;;;;3.72;1.80;;;;;;;;;;5053201;28;20082;-75
2022/10/03 01:20:01;;;;;;;3.28;1.98;;;;;;;;;;5053350;28;20025;-75
2022/10/03 01:22:54;;;;;;;3.47;2.05;;;;;;;;;;5053191;28;20493;-75
2022/10/03 01:25:28;;;;;;;4.20;1.90;;;;;;;;;;5053096;28;20078;-77
2022/10/03 01:30:59;;;;;;;3.85;1.98;;;;;;;;;;5053098;28;20051;-74
2022/10/03 01:33:39;;;;;;;4.22;1.98;;;;;;;;;;5034911;28;20578;-77
2022/10/03 01:36:24;;;;;;;5.07;2.20;;;;;;;;;;5053217;28;20021;-76
2022/10/03 01:38:59;;;;;;;4.70;2.25;;;;;;;;;;5053051;28;20451;-72
2022/10/03 01:41:58;;;;;;;4.10;2.05;;;;;;;;;;5052890;28;20041;-75
2022/10/03 01:44:40;;;;;;;4.57;2.20;;;;;;;;;;5011997;28;20033;-75
2022/10/03 01:47:38;;;;;;;4.80;2.05;;;;;;;;;;5052528;28;20028;-76
2022/10/03 01:50:27;;;;;;;3.20;1.80;;;;;;;;;;5052721;28;20116;-75
2022/10/03 01:53:14;;;;;;;4.20;1.92;;;;;;;;;;5052656;28;20025;-73
2022/10/03 01:56:02;;;;;;;5.75;2.00;;;;;;;;;;5052719;28;20476;-75
2022/10/03 01:58:51;;;;;;;4.05;1.98;;;;;;;;;;5052451;28;20024;-75
2022/10/03 02:01:38;;;;;;;4.30;2.15;;;;;;;;;;5052513;28;20028;-74
2022/10/03 02:04:04;;;;;;;4.70;2.10;;;;;;;;;;5052145;28;20044;-72
2022/10/03 02:06:52;;;;;;;6.25;1.90;;;;;;;;;;5052223;28;20021;-73
2022/10/03 02:09:23;;;;;;;3.85;2.08;;;;;;;;;;5052302;28;20384;-73
2022/10/03 02:11:49;;;;;;;5.03;2.10;;;;;;;;;;5052456;28;20025;-72
2022/10/03 02:14:29;;;;;;;5.60;2.13;;;;;;;;;;5052013;28;20025;-72
2022/10/03 02:17:03;;;;;;;3.80;1.80;;;;;;;;;;5052271;28;20040;-74
2022/10/03 02:19:49;;;;;;;7.47;2.13;;;;;;;;;;5051836;28;20033;-73
2022/10/03 02:22:44;;;;;;;4.80;2.00;;;;;;;;;;5052113;28;20048;-72
2022/10/03 02:25:31;;;;;;;5.25;2.28;;;;;;;;;;5051932;28;20064;-72
2022/10/03 02:28:12;;;;;;;3.53;2.10;;;;;;;;;;5051917;28;20021;-74
2022/10/03 02:30:56;;;;;;;4.25;2.08;;;;;;;;;;5052118;28;20025;-74
2022/10/03 02:33:47;;;;;;;5.32;1.92;;;;;;;;;;5051727;28;20032;-73
2022/10/03 02:36:31;;;;;;;3.83;1.98;;;;;;;;;;5033955;28;20116;-73
2022/10/03 02:39:12;;;;;;;4.15;1.90;;;;;;;;;;5051616;28;20021;-75
2022/10/03 02:42:13;;;;;;;3.67;2.17;;;;;;;;;;5051660;28;20053;-73
2022/10/03 02:44:53;;;;;;;;;;;;;;;;;;5051753;28;20037;-73
2022/10/03 02:47:44;;;;;;;3.47;1.88;;;;;;;;;;5051664;28;19919;-75
2022/10/03 02:50:41;;;;;;;5.18;1.90;;;;;;;;;;5038506;28;20120;-75
2022/10/03 02:53:21;;;;;;;4.75;2.00;;;;;;;;;;5051498;28;20025;-73
2022/10/03 02:56:18;;;;;;;5.47;2.15;;;;;;;;;;5051232;28;20389;-76
2022/10/03 02:59:18;;;;;;;4.03;2.03;;;;;;;;;;5051023;28;20040;-75
2022/10/03 03:02:14;;;;;;;4.40;2.05;;;;;;;;;;5051338;28;20028;-74
2022/10/03 03:05:17;;;;;;;4.60;2.15;;;;;;;;;;5051074;28;20055;-75
2022/10/03 03:08:03;;;;;;;4.22;2.08;;;;;;;;;;5051355;28;20021;-76
2022/10/03 03:10:55;;;;;;;4.00;1.85;;;;;;;;;;5051219;28;20040;-76
2022/10/03 03:13:46;;;;;;;4.85;1.63;;;;;;;;;;5050987;28;20112;-77
2022/10/03 03:16:35;;;;;;;4.70;1.88;;;;;;;;;;5051204;28;20036;-77
2022/10/03 03:19:21;;;;;;;3.45;1.80;;;;;;;;;;5050890;28;20538;-75
2022/10/03 03:21:47;;;;;;;3.55;1.90;;;;;;;;;;5051185;28;20396;-77
2022/10/03 03:24:46;;;;;;;2.75;1.75;;;;;;;;;;5050094;28;20043;-75
2022/10/03 03:27:33;;;;;;;4.32;1.80;;;;;;;;;;5050978;28;20108;-76
2022/10/03 03:30:10;;;;;;;3.55;1.80;;;;;;;;;;5050739;28;20381;-75
2022/10/03 03:33:00;;;;;;;4.50;1.60;;;;;;;;;;5050505;28;20564;-75
2022/10/03 03:35:41;;;;;;;5.63;1.80;;;;;;;;;;5050365;28;20029;-75
2022/10/03 03:38:15;;;;;;;3.47;1.70;;;;;;;;;;5050741;28;20025;-75
2022/10/03 03:41:17;;;;;;;3.20;1.50;;;;;;;;;;5050544;28;20670;-77
2022/10/03 03:43:58;;;;;;;3.83;1.80;;;;;;;;;;5050372;28;20025;-78
2022/10/03 03:46:28;;;;;;;2.47;1.55;;;;;;;;;;5050710;28;20061;-77
2022/10/03 03:49:09;;;;;;;3.60;1.70;;;;;;;;;;5050153;28;20017;-77
2022/10/03 03:51:56;;;;;;;3.60;1.80;;;;;;;;;;5050464;28;20021;-77
2022/10/03 03:54:45;;;;;;;4.20;1.80;;;;;;;;;;5050298;28;20033;-76
2022/10/03 03:57:13;;;;;;;4.03;1.70;;;;;;;;;;5050528;28;20043;-75
2022/10/03 03:59:50;;;;;;;3.17;1.63;;;;;;;;;;5050250;28;20547;-75
2022/10/03 04:02:21;;;;;;;3.10;1.50;;;;;;;;;;5050217;28;20512;-76
2022/10/03 04:04:59;;;;;;;3.33;1.58;;;;;;;;;;5049923;28;20063;-75
2022/10/03 04:07:25;;;;;;;3.60;1.80;;;;;;;;;;5049903;28;20079;-78
2022/10/03 04:10:12;;;;;;;4.95;2.10;;;;;;;;;;5049907;28;20025;-74
2022/10/03 04:12:58;;;;;;;3.55;1.90;;;;;;;;;;5050258;28;20629;-77
2022/10/03 04:16:00;;;;;;;3.90;1.63;;;;;;;;;;5049762;28;20032;-76
2022/10/03 04:21:40;;;;;;;3.95;1.75;;;;;;;;;;5050298;28;20495;-76
2022/10/03 04:24:42;;;;;;;3.17;1.50;;;;;;;;;;5031862;28;20403;-78
2022/10/03 04:27:33;;;;;;;3.38;1.63;;;;;;;;;;5032264;28;20022;-74
2022/10/03 04:30:17;;;;;;;3.65;1.77;;;;;;;;;;5049836;28;20035;-76
2022/10/03 04:33:05;;;;;;;4.22;1.80;;;;;;;;;;5032062;28;20118;-74
2022/10/03 04:36:10;;;;;;;5.32;1.67;;;;;;;;;;5051344;28;20033;-75
2022/10/03 04:38:43;;;;;;;3.90;2.08;;;;;;;;;;5054045;28;20036;-75
2022/10/03 04:41:17;;;;;;;3.42;1.80;;;;;;;;;;5053535;28;20037;-75
2022/10/03 04:43:47;;;;;;;3.45;1.70;;;;;;;;;;5053832;28;20120;-75
2022/10/03 04:46:24;;;;;;;3.50;1.75;;;;;;;;;;5053534;28;20029;-76
2022/10/03 04:48:57;;;;;;;3.42;1.73;;;;;;;;;;5053952;28;20044;-75
2022/10/03 04:51:36;;;;;;;3.90;1.75;;;;;;;;;;5053868;28;20179;-75
2022/10/03 04:54:21;;;;;;;3.83;1.90;;;;;;;;;;5036219;28;20044;-77
2022/10/03 04:56:58;;;;;;;4.28;1.80;;;;;;;;;;5053908;28;20031;-75
2022/10/03 04:59:47;;;;;;;4.68;1.90;;;;;;;;;;5053445;28;20029;-74
2022/10/03 05:02:35;;;;;;;5.00;2.03;;;;;;;;;;5053655;28;20036;-73
2022/10/03 05:05:30;;;;;;;4.20;1.80;;;;;;;;;;5053454;28;20393;-77
2022/10/03 05:07:55;;;;;;;5.03;1.80;;;;;;;;;;5006742;28;20045;-76
2022/10/03 05:10:38;;;;;;;5.30;1.80;;;;;;;;;;5053297;28;20025;-77
2022/10/03 05:13:21;;;;;;;5.50;1.90;;;;;;;;;;5035567;28;20040;-75
2022/10/03 05:15:58;;;;;;;5.55;2.10;;;;;;;;;;5052992;28;20036;-73
2022/10/03 05:18:40;;;;;;;4.55;2.20;;;;;;;;;;5053167;28;20499;-76
2022/10/03 05:21:15;;;;;;;3.65;2.00;;;;;;;;;;5053013;28;20581;-75
2022/10/03 05:23:52;;;;;;;6.63;2.20;;;;;;;;;;5053181;28;20056;-75
2022/10/03 05:26:40;;;;;;;4.35;1.92;;;;;;;;;;5052977;28;20025;-75
2022/10/03 05:29:05;;;;;;;4.40;1.90;;;;;;;;;;5053245;28;20495;-75
2022/10/03 05:31:56;;;;;;;3.78;1.90;;;;;;;;;;5052670;28;20104;-76
2022/10/03 05:34:58;;;;;;;5.80;1.90;;;;;;;;;;5014485;28;20037;-76
2022/10/03 05:37:29;;;;;;;5.50;2.05;;;;;;;;;;5021994;28;20052;-75
2022/10/03 05:40:06;;;;;;;4.53;2.15;;;;;;;;;;5052711;28;20045;-75
2022/10/03 05:42:51;;;;;;;5.88;2.13;;;;;;;;;;5053067;28;20171;-75
2022/10/03 05:45:54;;;;;;;4.97;2.20;;;;;;;;;;5052448;28;20029;-72
2022/10/03 05:48:44;;;;;;;3.92;1.98;;;;;;;;;;5039070;28;20037;-75
2022/10/03 05:51:19;;;;;;;4.60;2.00;;;;;;;;;;5006205;28;20396;-75
2022/10/03 05:54:12;;;;;;;4.78;2.20;;;;;;;;;;5052601;28;20025;-75
2022/10/03 05:57:15;;;;;;;4.30;2.00;;;;;;;;;;5052144;28;20047;-76
2022/10/03 06:00:02;;;;;;;4.50;2.20;;;;;;;;;;5052537;28;20083;-74
2022/10/03 06:02:43;;;;;;;5.93;1.90;;;;;;;;;;5052344;28;20039;-75
2022/10/03 06:05:23;;;;;;;;;;;;;;;;;;5052807;28;20036;-74
2022/10/03 06:08:07;;;;;;;5.45;2.13;;;;;;;;;;5052188;28;19982;-78
2022/10/03 06:10:51;;;;;;;5.43;2.10;;;;;;;;;;5052273;28;20057;-72
2022/10/03 06:14:10;;;;;;;5.20;2.35;;;;;;;;;;5052333;28;20078;-74
2022/10/03 06:17:13;;;;;;;6.78;2.55;;;;;;;;;;4951344;29;20380;-75
2022/10/03 06:19:56;;;;;;;7.65;2.45;;;;;;;;;;5007741;28;20489;-75
2022/10/03 06:23:03;;;;;;;5.45;2.42;;;;;;;;;;5052067;28;20028;-76
2022/10/03 06:25:51;;;;;;;5.55;2.50;;;;;;;;;;4934946;29;20051;-74
2022/10/03 06:28:31;;;;;;;6.38;2.20;;;;;;;;;;4946397;29;20043;-75
2022/10/03 06:31:12;;;;;;;3.58;2.17;;;;;;;;;;5022426;28;20041;-75
2022/10/03 06:33:56;;;;;;;6.25;2.33;;;;;;;;;;5052034;28;20044;-75
2022/10/03 06:37:01;;;;;;;7.00;2.38;;;;;;;;;;5033713;28;20029;-75
2022/10/03 06:39:30;;;;;;;6.43;2.22;;;;;;;;;;5051974;28;20024;-75
2022/10/03 06:41:58;;;;;;;9.65;2.40;;;;;;;;;;5051271;28;20074;-75
2022/10/03 06:44:54;;;;;;;7.65;2.45;;;;;;;;;;5033684;28;20033;-73
2022/10/03 06:47:40;;;;;;;8.27;3.05;;;;;;;;;;5051136;28;20021;-73
2022/10/03 06:50:17;;;;;;;5.00;1.95;;;;;;;;;;5051457;28;20032;-75
2022/10/03 06:52:53;;;;;;;8.05;2.15;;;;;;;;;;5051548;28;20025;-76
2022/10/03 06:55:41;;;;;;;8.93;2.63;;;;;;;;;;5051447;28;20522;-76
2022/10/03 06:58:19;;;;;;;7.72;2.25;;;;;;;;;;5050612;28;20029;-74
2022/10/03 07:01:00;;;;;;;10.27;2.40;;;;;;;;;;5051085;28;20087;-74
2022/10/03 07:03:41;;;;;;;6.85;2.60;;;;;;;;;;5051097;28;20035;-76
2022/10/03 07:06:10;;;;;;;;;;;;;;;;;;5051374;28;20040;-74
2022/10/03 07:09:04;;;;;;;8.05;2.60;;;;;;;;;;5051437;28;19920;-75
2022/10/03 07:11:51;;;;;;;6.28;2.38;;;;;;;;;;5051139;28;20480;-74
2022/10/03 07:14:47;;;;;;;4.68;2.17;;;;;;;;;;5051268;28;20110;-75
2022/10/03 07:17:50;;;;;;;6.95;2.42;;;;;;;;;;5050497;28;20033;-76
2022/10/03 07:20:31;;;;;;;10.07;2.83;;;;;;;;;;4950448;29;20472;-75
2022/10/03 07:23:38;;;;;;;8.23;2.60;;;;;;;;;;4934074;29;20031;-75
2022/10/03 07:26:35;;;;;;;4.55;2.40;;;;;;;;;;5035581;28;20045;-72
2022/10/03 07:29:19;;;;;;;5.70;2.08;;;;;;;;;;5051248;28;20025;-75
2022/10/03 07:32:10;;;;;;;5.75;2.50;;;;;;;;;;5050927;28;20500;-73
2022/10/03 07:35:10;;;;;;;3.88;1.98;;;;;;;;;;5050695;28;20055;-75
2022/10/03 07:41:20;;;;;;;7.22;2.80;;;;;;;;;;5050436;28;20051;-74
2022/10/03 07:44:23;;;;;;;8.75;2.33;;;;;;;;;;5050684;28;20162;-77
2022/10/03 07:46:51;;;;;;;6.93;2.72;;;;;;;;;;5050148;28;20047;-75
2022/10/03 07:49:26;;;;;;;8.68;2.50;;;;;;;;;;5032818;28;20025;-75
2022/10/03 07:52:14;;;;;;;9.60;2.45;;;;;;;;;;5050453;28;20049;-75
2022/10/03 07:55:10;;;;;;;7.95;2.50;;;;;;;;;;5034213;28;20106;-76
2022/10/03 07:57:49;;;;;;;8.60;3.00;;;;;;;;;;5050008;28;20488;-77
2022/10/03 08:00:21;;;;;;;9.95;2.88;;;;;;;;;;5050472;28;20634;-75
2022/10/03 08:03:06;;;;;;;5.68;2.50;;;;;;;;;;5050201;28;20108;-74
2022/10/03 08:05:52;;;;;;;8.10;2.40;;;;;;;;;;5050469;28;20029;-77
2022/10/03 08:08:36;;;;;;;5.80;2.33;;;;;;;;;;5050042;28;20094;-75
2022/10/03 08:11:29;;;;;;;7.95;2.67;;;;;;;;;;5050119;28;20576;-75
2022/10/03 08:14:00;;;;;;;6.65;2.15;;;;;;;;;;5050061;28;20036;-75
2022/10/03 08:17:07;;;;;;;7.63;2.08;;;;;;;;;;5049942;28;20667;-75
2022/10/03 08:19:57;;;;;;;6.18;2.20;;;;;;;;;;5045116;28;20043;-75
2022/10/03 08:22:48;;;;;;;6.80;2.25;;;;;;;;;;5049821;28;20044;-77
2022/10/03 08:25:48;;;;;;;8.68;2.20;;;;;;;;;;5050061;28;20029;-74
2022/10/03 08:28:34;;;;;;;5.90;2.20;;;;;;;;;;5049671;28;20120;-74
2022/10/03 08:31:02;;;;;;;7.47;2.08;;;;;;;;;;5049826;28;20036;-73
2022/10/03 08:33:53;;;;;;;8.40;2.50;;;;;;;;;;5031613;28;20051;-75
2022/10/03 08:36:37;;;;;;;7.40;2.25;;;;;;;;;;5031901;28;20029;-73
2022/10/03 08:39:20;;;;;;;8.90;2.30;;;;;;;;;;5050252;28;20102;-74
2022/10/03 08:42:53;;;;;;;5.72;1.85;;;;;;;;;;5049588;28;20056;-75
2022/10/03 08:45:43;;;;;;;10.65;2.17;;;;;;;;;;4968994;28;20047;-75
2022/10/03 08:48:29;;;;;;;5.38;1.90;;;;;;;;;;4969173;28;20066;-73
2022/10/03 08:51:27;;;;;;;9.15;2.38;;;;;;;;;;5030598;28;20041;-73
2022/10/03 08:54:24;;;;;;;10.07;2.65;;;;;;;;;;5015462;28;20069;-73
2022/10/03 08:57:05;;;;;;;7.85;2.45;;;;;;;;;;5049655;28;20029;-74
2022/10/03 08:59:55;;;;;;;10.10;2.55;;;;;;;;;;5050053;28;20044;-73
2022/10/03 09:02:39;;;;;;;9.60;2.33;;;;;;;;;;5049385;28;20036;-74
2022/10/03 09:05:29;;;;;;;7.65;2.30;;;;;;;;;;5049873;28;20033;-74
2022/10/03 09:07:57;;;;;;;6.53;1.97;;;;;;;;;;5049262;28;20040;-75
2022/10/03 09:10:34;;;;;;;5.60;1.90;;;;;;;;;;5031695;28;20328;-75
2022/10/03 09:13:21;;;;;;;5.32;1.90;;;;;;;;;;5049580;28;20028;-75
2022/10/03 09:16:19;;;;;;;9.38;1.98;;;;;;;;;;5050093;28;20025;-77
2022/10/03 09:19:15;;;;;;;4.43;1.92;;;;;;;;;;5031292;28;20048;-74
2022/10/03 09:22:02;;;;;;;3.60;1.52;;;;;;;;;;5051043;28;20025;-75
2022/10/03 09:24:49;;;;;;;7.30;1.88;;;;;;;;;;5035044;28;20033;-75
2022/10/03 09:27:41;;;;;;;5.35;1.85;;;;;;;;;;5052778;28;20032;-76
2022/10/03 09:30:19;;;;;;;4.70;1.70;;;;;;;;;;5052345;28;20048;-76
2022/10/03 09:33:12;;;;;;;4.15;1.70;;;;;;;;;;5052754;28;20535;-77
2022/10/03 09:35:56;;;;;;;6.28;1.80;;;;;;;;;;5053155;28;20415;-74
2022/10/03 09:38:52;;;;;;;5.88;1.95;;;;;;;;;;5052518;28;20636;-73
2022/10/03 09:41:36;;;;;;;5.20;1.80;;;;;;;;;;5052789;28;20045;-74
2022/10/03 09:44:17;;;;;;;4.88;1.90;;;;;;;;;;5052726;28;20045;-73
2022/10/03 09:49:47;;;;;;;6.50;1.80;;;;;;;;;;5053137;28;20681;-74
2022/10/03 09:52:31;;;;;;;5.93;1.75;;;;;;;;;;5052916;28;20024;-76
2022/10/03 09:55:06;;;;;;;9.57;2.03;;;;;;;;;;5052645;28;20033;-74
2022/10/03 09:58:14;;;;;;;7.88;1.98;;;;;;;;;;5052314;28;20025;-75
2022/10/03 10:01:13;;;;;;;4.53;1.90;;;;;;;;;;5039558;28;20052;-76
2022/10/03 10:03:45;;;;;;;8.90;1.90;;;;;;;;;;5052343;28;20024;-75
2022/10/03 10:06:43;;;;;;;5.72;1.73;;;;;;;;;;5052757;28;20097;-75
2022/10/03 10:09:42;;;;;;;4.00;1.85;;;;;;;;;;5021437;28;20408;-74
2022/10/03 10:12:40;;;;;;;5.03;1.65;;;;;;;;;;5052526;28;20064;-76
2022/10/03 10:15:17;;;;;;;5.70;1.50;;;;;;;;;;5052195;28;20033;-75
2022/10/03 10:18:07;;;;;;;8.45;1.98;;;;;;;;;;5051813;28;20107;-76
2022/10/03 10:20:44;;;;;;;7.13;1.65;;;;;;;;;;5052312;28;20025;-75
2022/10/03 10:23:26;;;;;;;4.28;1.70;;;;;;;;;;5052006;28;20087;-75
2022/10/03 10:26:13;;;;;;;6.03;1.70;;;;;;;;;;5052144;28;20485;-74
2022/10/03 10:28:51;;;;;;;3.38;1.10;;;;;;;;;;5051405;28;20444;-76
2022/10/03 10:31:53;;;;;;;5.82;1.30;;;;;;;;;;5051872;28;20488;-75
2022/10/03 10:34:43;;;;;;;5.03;1.30;;;;;;;;;;4950086;29;20035;-73
2022/10/03 10:37:31;;;;;;;5.03;1.45;;;;;;;;;;5048222;28;20097;-76
2022/10/03 10:39:59;;;;;;;6.95;1.40;;;;;;;;;;5051521;28;20049;-74
2022/10/03 10:42:57;;;;;;;4.00;1.30;;;;;;;;;;5052083;28;20025;-74
2022/10/03 10:45:28;;;;;;;6.18;1.52;;;;;;;;;;4979843;28;20060;-74
2022/10/03 10:48:31;;;;;;;3.40;1.20;;;;;;;;;;5051363;28;20027;-76
2022/10/03 10:51:48;;;;;;;7.05;1.35;;;;;;;;;;5051511;28;20036;-74
2022/10/03 10:54:32;;;;;;;4.60;1.20;;;;;;;;;;5051260;28;20056;-74
2022/10/03 10:57:06;;;;;;;5.18;1.20;;;;;;;;;;5033608;28;20060;-75
2022/10/03 10:59:59;;;;;;;4.38;1.60;;;;;;;;;;5051307;28;20086;-75
2022/10/03 11:03:01;;;;;;;3.75;1.25;;;;;;;;;;5051332;28;20029;-75
2022/10/03 11:06:00;;;;;;;4.68;1.48;;;;;;;;;;5051181;28;20104;-75
2022/10/03 11:08:58;;;;;;;4.35;1.35;;;;;;;;;;5050812;28;20024;-75
2022/10/03 11:12:12;;;;;;;4.97;1.55;;;;;;;;;;5051266;28;20091;-74
2022/10/03 11:15:15;;;;;;;5.63;1.38;;;;;;;;;;5051058;28;20024;-76
2022/10/03 11:18:14;;;;;;;5.28;1.60;;;;;;;;;;5051081;28;20547;-74
2022/10/03 11:21:15;;;;;;;6.00;1.50;;;;;;;;;;5051038;28;20028;-73
2022/10/03 11:24:01;;;;;;;3.72;1.50;;;;;;;;;;4965931;28;20068;-74
2022/10/03 11:27:07;;;;;;;5.93;1.67;;;;;;;;;;5032993;28;20127;-76
2022/10/03 11:30:10;;;;;;;3.53;1.60;;;;;;;;;;5050735;28;20032;-74
2022/10/03 11:32:54;;;;;;;4.28;1.45;;;;;;;;;;5050648;28;20486;-75
2022/10/03 11:35:30;;;;;;;7.13;1.55;;;;;;;;;;5050735;28;20548;-74
2022/10/03 11:38:06;;;;;;;5.20;1.55;;;;;;;;;;5050384;28;20397;-74
2022/10/03 11:40:42;;;;;;;7.40;1.52;;;;;;;;;;5050280;28;20562;-74
2022/10/03 11:43:39;;;;;;;4.50;1.45;;;;;;;;;;5050530;28;20197;-76
2022/10/03 11:46:35;;;;;;;4.93;1.40;;;;;;;;;;5050436;28;20408;-74
2022/10/03 11:49:45;;;;;;;5.38;1.30;;;;;;;;;;5008791;28;20029;-76
2022/10/03 11:52:13;;;;;;;5.50;1.40;;;;;;;;;;5012168;28;20132;-73
2022/10/03 11:54:42;;;;;;;4.35;1.50;;;;;;;;;;5050213;28;20616;-74
2022/10/03 11:57:25;;;;;;;3.80;1.52;;;;;;;;;;5050384;28;20032;-74
2022/10/03 12:00:19;;;;;;;3.58;1.50;;;;;;;;;;5032115;28;20123;-74
2022/10/03 12:03:06;;;;;;;4.68;1.50;;;;;;;;;;5049398;28;20044;-74
2022/10/03 12:08:53;;;;;;;5.38;1.73;;;;;;;;;;5032210;28;20124;-74
2022/10/03 12:08:54;;;;;;;5.38;1.45;;;;;;;;;;5050002;28;20037;-74
2022/10/03 12:11:28;;;;;;;4.72;1.40;;;;;;;;;;5049982;28;20120;-73
2022/10/03 12:14:12;;;;;;;5.47;1.50;;;;;;;;;;5050207;28;20614;-73
2022/10/03 12:17:00;;;;;;;3.72;1.70;;;;;;;;;;5049904;28;20025;-73
2022/10/03 12:19:44;;;;;;;4.65;1.40;;;;;;;;;;5049608;28;20037;-74
2022/10/03 12:22:12;;;;;;;5.50;1.50;;;;;;;;;;5050195;28;20025;-73
2022/10/03 12:24:43;;;;;;;3.42;1.40;;;;;;;;;;5049798;28;20553;-74
2022/10/03 12:27:09;;;;;;;2.83;1.40;;;;;;;;;;5050148;28;20037;-72
2022/10/03 12:29:39;;;;;;;3.80;1.60;;;;;;;;;;5049546;28;20155;-74
2022/10/03 12:32:04;;;;;;;4.85;1.60;;;;;;;;;;5049769;28;20078;-73
2022/10/03 12:35:18;;;;;;;4.50;1.60;;;;;;;;;;5049535;28;20032;-73
2022/10/03 12:37:59;;;;;;;5.90;1.83;;;;;;;;;;5041305;28;20048;-73
2022/10/03 12:40:30;;;;;;;4.70;1.60;;;;;;;;;;5049551;28;20564;-74
2022/10/03 12:43:05;;;;;;;4.07;1.30;;;;;;;;;;5050304;28;20094;-72
2022/10/03 12:45:35;;;;;;;5.18;1.58;;;;;;;;;;5049830;28;20477;-75
2022/10/03 12:48:41;;;;;;;3.33;1.52;;;;;;;;;;5049530;28;20035;-74
2022/10/03 12:51:16;;;;;;;3.55;1.30;;;;;;;;;;5048564;28;20513;-74
2022/10/03 12:53:56;;;;;;;3.92;1.30;;;;;;;;;;5049718;28;20086;-74
2022/10/03 12:56:21;;;;;;;3.60;1.50;;;;;;;;;;5050625;28;20037;-73
2022/10/03 12:59:06;;;;;;;7.93;1.58;;;;;;;;;;5035893;28;20029;-74
2022/10/03 13:01:54;;;;;;;2.63;1.35;;;;;;;;;;5053508;28;20020;-73
2022/10/03 13:04:38;;;;;;;5.72;1.40;;;;;;;;;;5035553;28;20060;-74
2022/10/03 13:07:25;;;;;;;2.42;1.20;;;;;;;;;;5053726;28;20369;-74
2022/10/03 13:10:13;;;;;;;6.68;1.63;;;;;;;;;;5053677;28;20033;-72
2022/10/03 13:13:04;;;;;;;5.03;1.48;;;;;;;;;;5053525;28;20686;-73
2022/10/03 13:15:45;;;;;;;4.82;1.42;;;;;;;;;;5053114;28;20021;-74
2022/10/03 13:18:29;;;;;;;4.15;1.30;;;;;;;;;;5053135;28;20100;-73
2022/10/03 13:21:10;;;;;;;4.72;1.40;;;;;;;;;;5053122;28;20435;-73
2022/10/03 13:23:39;;;;;;;4.35;1.40;;;;;;;;;;5053246;28;20025;-74
2022/10/03 13:26:13;;;;;;;4.30;1.30;;;;;;;;;;5052965;28;20078;-75
2022/10/03 13:29:10;;;;;;;3.88;1.40;;;;;;;;;;5053206;28;20076;-77
2022/10/03 13:31:53;;;;;;;3.75;1.42;;;;;;;;;;5052705;28;20048;-75
2022/10/03 13:34:22;;;;;;;5.82;1.50;;;;;;;;;;5053132;28;20480;-76
2022/10/03 13:36:58;;;;;;;3.88;1.55;;;;;;;;;;5052589;28;20082;-74
2022/10/03 13:39:28;;;;;;;5.63;1.45;;;;;;;;;;5052865;28;20393;-76
2022/10/03 13:42:12;;;;;;;;;;;;;;;;;;5035289;28;20052;-77
2022/10/03 13:44:42;;;;;;;5.43;1.45;;;;;;;;;;5053002;28;20435;-76
2022/10/03 13:47:27;;;;;;;5.60;1.63;;;;;;;;;;5052425;28;20112;-76
2022/10/03 13:49:57;;;;;;;2.65;1.40;;;;;;;;;;5052825;28;20116;-76
2022/10/03 13:52:43;;;;;;;;;;;;;;;;;;5053017;28;20635;-77
2022/10/03 13:55:34;;;;;;;3.38;1.40;;;;;;;;;;5052533;28;19913;-79
2022/10/03 13:58:09;;;;;;;3.90;1.33;;;;;;;;;;5021197;28;20036;-76
2022/10/03 14:01:10;;;;;;;3.97;1.50;;;;;;;;;;5052417;28;20104;-76
2022/10/03 14:04:16;;;;;;;4.95;1.50;;;;;;;;;;5020800;28;20043;-76
2022/10/03 14:06:56;;;;;;;5.75;1.60;;;;;;;;;;5052135;28;20033;-76
2022/10/03 14:09:37;;;;;;;5.07;1.60;;;;;;;;;;5052178;28;20059;-73
2022/10/03 14:12:34;;;;;;;;;;;;;;;;;;5052420;28;20025;-74
2022/10/03 14:15:23;;;;;;;5.07;1.40;;;;;;;;;;4997273;28;19956;-74
2022/10/03 14:18:22;;;;;;;2.78;1.35;;;;;;;;;;5052477;28;20039;-72
2022/10/03 14:21:25;;;;;;;4.22;1.48;;;;;;;;;;5052066;28;20509;-72
2022/10/03 14:24:05;;;;;;;3.83;1.27;;;;;;;;;;5052115;28;20025;-72
2022/10/03 14:26:39;;;;;;;3.72;1.50;;;;;;;;;;5051750;28;20492;-75
2022/10/03 14:29:26;;;;;;;4.63;1.50;;;;;;;;;;5051884;28;20043;-74
2022/10/03 14:32:08;;;;;;;4.97;1.60;;;;;;;;;;5051573;28;20029;-75
2022/10/03 14:34:42;;;;;;;4.90;1.40;;;;;;;;;;5052650;28;20032;-75
2022/10/03 14:37:26;;;;;;;3.00;1.45;;;;;;;;;;5051621;28;20639;-73
2022/10/03 14:40:12;;;;;;;2.67;1.20;;;;;;;;;;5051762;28;20024;-76
2022/10/03 14:42:49;;;;;;;4.07;1.52;;;;;;;;;;5050867;28;20056;-73
2022/10/03 14:45:25;;;;;;;2.33;1.20;;;;;;;;;;5051615;28;20629;-75
2022/10/03 14:47:56;;;;;;;3.00;1.50;;;;;;;;;;5051400;28;20031;-73
2022/10/03 14:50:25;;;;;;;2.75;1.20;;;;;;;;;;5051396;28;20081;-75
2022/10/03 14:53:01;;;;;;;2.65;1.30;;;;;;;;;;5051498;28;20036;-74
2022/10/03 14:55:38;;;;;;;4.35;1.38;;;;;;;;;;5051684;28;20017;-74
2022/10/03 14:58:14;;;;;;;4.03;1.38;;;;;;;;;;5051355;28;20550;-72
2022/10/03 15:00:54;;;;;;;4.30;1.38;;;;;;;;;;5051421;28;20020;-74
2022/10/03 15:03:29;;;;;;;4.33;1.50;;;;;;;;;;5033271;28;20032;-75
2022/10/03 15:05:58;;;;;;;4.20;1.50;;;;;;;;;;5051154;28;20383;-74
2022/10/03 15:08:29;;;;;;;4.47;1.40;;;;;;;;;;5051286;28;20056;-73
2022/10/03 15:10:55;;;;;;;3.47;1.30;;;;;;;;;;5051396;28;20390;-73
2022/10/03 15:13:23;;;;;;;3.15;1.40;;;;;;;;;;5051218;28;20108;-75
2022/10/03 15:15:52;;;;;;;3.50;1.30;;;;;;;;;;5033414;28;20028;-73
2022/10/03 15:18:22;;;;;;;3.83;1.35;;;;;;;;;;5050420;28;20021;-73
2022/10/03 15:20:51;;;;;;;3.10;1.40;;;;;;;;;;5050631;28;20025;-73
2022/10/03 15:23:37;;;;;;;3.63;1.40;;;;;;;;;;5050760;28;20036;-72
2022/10/03 15:26:11;;;;;;;3.05;1.40;;;;;;;;;;5050906;28;20029;-72
2022/10/03 15:28:42;;;;;;;4.47;1.35;;;;;;;;;;5050885;28;20454;-72
2022/10/03 15:31:43;;;;;;;4.72;1.35;;;;;;;;;;5050877;28;20021;-72
2022/10/03 15:34:19;;;;;;;4.38;1.42;;;;;;;;;;5034182;28;20064;-72
2022/10/03 15:36:49;;;;;;;5.15;1.25;;;;;;;;;;5050398;28;20103;-73
2022/10/03 15:39:21;;;;;;;;;;;;;;;;;;5051087;28;20029;-75
2022/10/03 15:42:12;;;;;;;2.80;1.23;;;;;;;;;;5050299;28;19917;-76
2022/10/03 15:44:49;;;;;;;3.88;1.38;;;;;;;;;;5051084;28;20196;-75
2022/10/03 15:47:17;;;;;;;2.97;1.20;;;;;;;;;;5050088;28;20021;-76
2022/10/03 15:49:49;;;;;;;3.92;1.63;;;;;;;;;;5050541;28;20059;-75
2022/10/03 15:52:22;;;;;;;3.70;1.30;;;;;;;;;;5050245;28;20021;-76
2022/10/03 15:54:55;;;;;;;2.92;1.20;;;;;;;;;;5050392;28;20090;-77
2022/10/03 15:57:27;;;;;;;4.72;1.20;;;;;;;;;;5050063;28;20425;-74
2022/10/03 15:59:56;;;;;;;2.78;1.17;;;;;;;;;;5050049;28;20029;-73
2022/10/03 16:02:34;;;;;;;4.50;1.30;;;;;;;;;;5050075;28;20025;-74
2022/10/03 16:05:03;;;;;;;3.08;1.35;;;;;;;;;;5050392;28;20396;-72
2022/10/03 16:07:39;;;;;;;2.92;1.20;;;;;;;;;;5050103;28;20021;-76
2022/10/03 16:10:15;;;;;;;6.22;1.40;;;;;;;;;;5050036;28;20020;-72
2022/10/03 16:12:51;;;;;;;2.53;1.00;;;;;;;;;;5049813;28;20029;-74
2022/10/03 16:15:22;;;;;;;2.60;1.10;;;;;;;;;;5050240;28;20514;-74
2022/10/03 16:18:00;;;;;;;;;;;;;;;;;;5050367;28;20020;-75
2022/10/03 16:20:42;;;;;;;3.90;1.10;;;;;;;;;;5050072;28;19918;-73
2022/10/03 16:23:23;;;;;;;3.33;1.20;;;;;;;;;;5049890;28;20120;-74
2022/10/03 16:25:59;;;;;;;2.25;1.08;;;;;;;;;;5050165;28;20033;-73
2022/10/03 16:28:30;;;;;;;2.42;1.10;;;;;;;;;;5049781;28;20032;-73
2022/10/03 16:31:01;;;;;;;3.65;1.30;;;;;;;;;;5049651;28;20039;-73
2022/10/03 16:33:39;;;;;;;4.07;1.50;;;;;;;;;;5049735;28;20049;-72
2022/10/03 16:36:08;;;;;;;2.92;1.40;;;;;;;;;;5049826;28;20047;-74
2022/10/03 16:38:39;;;;;;;3.60;1.60;;;;;;;;;;5049773;28;20053;-72
2022/10/03 16:41:23;;;;;;;4.00;1.30;;;;;;;;;;5049656;28;20045;-74